Time;durP1;ratioP1;P1;durP2;ratioP2;P2;SDS_P1;SDS_P2;PMS_P1;PMS_P2;Temp;Humidity;BMP_temperature;BMP_pressure;BME280_temperature;BME280_humidity;BME280_pressure;Samples;Min_cycle;Max_cycle;Signal;HPM_P1;HPM_P2
2022/08/17 00:00:27;;;;;;;41.25;36.03;;;24.00;99.90;;;;;;5094042;28;20014;-75
2022/08/17 00:03:08;;;;;;;53.60;34.40;;;24.00;99.90;;;;;;5093534;28;20082;-76
2022/08/17 00:05:40;;;;;;;46.72;31.05;;;23.90;99.90;;;;;;5093867;28;20077;-72
2022/08/17 00:08:07;;;;;;;36.63;31.35;;;23.40;99.90;;;;;;5093435;28;20032;-75
2022/08/17 00:10:34;;;;;;;39.05;29.70;;;23.20;99.90;;;;;;5093828;28;20028;-77
2022/08/17 00:13:05;;;;;;;33.35;29.10;;;23.10;99.90;;;;;;5093683;28;20495;-75
2022/08/17 00:15:31;;;;;;;36.33;29.48;;;23.00;99.90;;;;;;5093676;28;20028;-75
2022/08/17 00:17:56;;;;;;;35.38;28.17;;;23.20;99.90;;;;;;5092113;28;20028;-74
2022/08/17 00:20:22;;;;;;;35.45;27.88;;;23.30;99.90;;;;;;5093450;28;20103;-75
2022/08/17 00:22:48;;;;;;;38.28;30.13;;;23.20;99.90;;;;;;5092506;28;20460;-75
2022/08/17 00:25:18;;;;;;;35.92;28.30;;;23.00;99.90;;;;;;5093077;28;20063;-77
2022/08/17 00:27:44;;;;;;;30.70;26.88;;;23.30;99.90;;;;;;5093271;28;20024;-76
2022/08/17 00:30:11;;;;;;;30.50;26.92;;;23.30;99.90;;;;;;5093276;28;20141;-77
2022/08/17 00:32:43;;;;;;;34.65;27.13;;;23.40;99.90;;;;;;5092883;28;20124;-77
2022/08/17 00:35:12;;;;;;;35.78;29.00;;;23.60;99.90;;;;;;5093274;28;20028;-76
2022/08/17 00:37:39;;;;;;;32.10;26.02;;;23.80;99.90;;;;;;5093283;28;20036;-76
2022/08/17 00:40:06;;;;;;;33.45;26.25;;;23.40;99.90;;;;;;5093030;28;20502;-76
2022/08/17 00:42:32;;;;;;;33.95;27.35;;;23.10;99.90;;;;;;5093128;28;20031;-75
2022/08/17 00:44:58;;;;;;;27.73;24.92;;;23.30;99.90;;;;;;5092241;28;20392;-76
2022/08/17 00:47:24;;;;;;;32.38;25.98;;;23.20;99.90;;;;;;5092959;28;20040;-77
2022/08/17 00:49:50;;;;;;;38.50;27.38;;;22.90;99.90;;;;;;5093250;28;20024;-76
2022/08/17 00:52:21;;;;;;;40.85;27.67;;;23.20;99.90;;;;;;5092947;28;20062;-77
2022/08/17 00:54:51;;;;;;;30.58;27.02;;;23.30;99.90;;;;;;5092956;28;20028;-77
2022/08/17 00:57:23;;;;;;;32.38;27.27;;;23.60;99.90;;;;;;5092868;28;20032;-76
2022/08/17 00:59:53;;;;;;;32.25;27.50;;;23.40;99.90;;;;;;5093144;28;20123;-76
2022/08/17 01:02:19;;;;;;;36.78;26.83;;;23.50;99.90;;;;;;5092630;28;20086;-77
2022/08/17 01:04:48;;;;;;;31.55;27.30;;;23.80;99.90;;;;;;5092666;28;20354;-72
2022/08/17 01:07:15;;;;;;;33.38;29.77;;;23.70;99.90;;;;;;5093069;28;20081;-73
2022/08/17 01:09:41;;;;;;;32.85;27.38;;;23.30;99.90;;;;;;5092902;28;20043;-76
2022/08/17 01:12:09;;;;;;;32.28;28.33;;;23.40;99.90;;;;;;5092931;28;20047;-76
2022/08/17 01:14:35;;;;;;;39.63;27.90;;;23.40;99.90;;;;;;5092388;28;20056;-74
2022/08/17 01:17:01;;;;;;;35.10;27.00;;;23.50;99.90;;;;;;5092866;28;20031;-75
2022/08/17 01:19:31;;;;;;;36.85;30.98;;;23.10;99.90;;;;;;5092776;28;20100;-74
2022/08/17 01:22:25;;;;;;;41.72;32.42;;;23.20;99.90;;;;;;5091572;28;20032;-72
2022/08/17 01:24:56;;;;;;;38.70;33.75;;;22.80;99.90;;;;;;5092507;28;20499;-74
2022/08/17 01:27:23;;;;;;;43.40;33.08;;;22.70;99.90;;;;;;5092327;28;20036;-72
2022/08/17 01:29:52;;;;;;;40.67;34.47;;;22.70;99.90;;;;;;5092759;28;20027;-74
2022/08/17 01:32:18;;;;;;;36.78;32.97;;;22.90;99.90;;;;;;5090013;28;20075;-71
2022/08/17 01:34:46;;;;;;;43.53;35.17;;;23.00;99.90;;;;;;5092692;28;20052;-72
2022/08/17 01:37:13;;;;;;;38.75;34.53;;;22.90;99.90;;;;;;5092712;28;20028;-74
2022/08/17 01:39:48;;;;;;;45.83;34.63;;;22.80;99.90;;;;;;5090710;28;20020;-74
2022/08/17 01:42:22;;;;;;;41.47;35.28;;;22.90;99.90;;;;;;5092378;28;20032;-76
2022/08/17 01:44:54;;;;;;;45.72;36.55;;;23.10;99.90;;;;;;5092156;28;20073;-73
2022/08/17 01:47:20;;;;;;;41.58;37.05;;;23.10;99.90;;;;;;5092528;28;20028;-72
2022/08/17 01:49:46;;;;;;;46.53;38.20;;;23.30;99.90;;;;;;5092905;28;20026;-73
2022/08/17 01:52:12;;;;;;;46.28;37.33;;;23.40;99.90;;;;;;5092320;28;20047;-72
2022/08/17 01:54:42;;;;;;;42.47;37.88;;;23.50;99.90;;;;;;5092276;28;20047;-75
2022/08/17 01:57:08;;;;;;;47.83;35.17;;;23.10;99.90;;;;;;5094173;28;20030;-73
2022/08/17 01:59:34;;;;;;;45.60;38.38;;;23.10;99.90;;;;;;5095096;28;20028;-72
2022/08/17 02:02:00;;;;;;;46.03;37.92;;;23.30;99.90;;;;;;5095936;28;20100;-75
2022/08/17 02:04:26;;;;;;;46.15;36.33;;;23.20;99.90;;;;;;5096276;28;20032;-76
2022/08/17 02:06:52;;;;;;;49.47;38.92;;;23.20;99.90;;;;;;5096376;28;20030;-75
2022/08/17 02:09:18;;;;;;;43.88;36.53;;;23.30;99.90;;;;;;5096136;28;20051;-75
2022/08/17 02:11:44;;;;;;;44.38;39.22;;;23.50;99.90;;;;;;5094837;28;20051;-74
2022/08/17 02:14:10;;;;;;;44.58;39.85;;;23.30;99.90;;;;;;5095514;28;20030;-75
2022/08/17 02:16:39;;;;;;;51.88;45.38;;;23.50;99.90;;;;;;5095786;28;20099;-75
2022/08/17 02:19:14;;;;;;;56.58;48.60;;;23.60;99.90;;;;;;5095945;28;20112;-76
2022/08/17 02:21:43;;;;;;;58.97;49.10;;;23.50;99.90;;;;;;5095796;28;20479;-76
2022/08/17 02:24:14;;;;;;;59.65;51.20;;;23.40;99.90;;;;;;5095788;28;20016;-76
2022/08/17 02:26:40;;;;;;;60.90;49.55;;;23.50;99.90;;;;;;5095880;28;20044;-75
2022/08/17 02:29:06;;;;;;;56.67;47.58;;;23.40;99.90;;;;;;5095186;28;20072;-76
2022/08/17 02:31:32;;;;;;;58.20;49.70;;;23.30;99.90;;;;;;5095528;28;20036;-76
2022/08/17 02:33:58;;;;;;;59.47;48.53;;;23.20;99.90;;;;;;5095845;28;20457;-73
2022/08/17 02:36:24;;;;;;;57.95;49.00;;;23.00;99.90;;;;;;5095233;28;20161;-75
2022/08/17 02:38:49;;;;;;;66.65;49.17;;;23.20;99.90;;;;;;5095547;28;20119;-76
2022/08/17 02:41:15;;;;;;;58.10;50.40;;;23.20;99.90;;;;;;5095716;28;20020;-76
2022/08/17 02:43:42;;;;;;;56.03;49.75;;;23.30;99.90;;;;;;5095357;28;20032;-76
2022/08/17 02:46:08;;;;;;;59.25;50.45;;;23.30;99.90;;;;;;5095501;28;20024;-76
2022/08/17 02:48:34;;;;;;;70.13;53.63;;;23.40;99.90;;;;;;5096041;28;20489;-72
2022/08/17 02:51:00;;;;;;;64.45;52.45;;;23.50;99.90;;;;;;5097970;28;20036;-74
2022/08/17 02:53:26;;;;;;;59.55;53.15;;;23.40;99.90;;;;;;5096799;28;20418;-73
2022/08/17 02:55:52;;;;;;;64.50;52.25;;;23.40;99.90;;;;;;5095192;28;20039;-73
2022/08/17 02:58:19;;;;;;;63.22;51.95;;;23.30;99.90;;;;;;5094761;28;20024;-74
2022/08/17 03:00:47;;;;;;;58.67;49.72;;;23.50;99.90;;;;;;5094989;28;20437;-74
2022/08/17 03:03:17;;;;;;;66.35;53.92;;;23.40;99.90;;;;;;5095164;28;20067;-75
2022/08/17 03:05:46;;;;;;;61.97;52.80;;;23.30;99.90;;;;;;5094947;28;20051;-76
2022/08/17 03:08:13;;;;;;;59.40;51.17;;;23.20;99.90;;;;;;5109947;27;20421;-76
2022/08/17 03:10:40;;;;;;;70.45;53.17;;;23.30;99.90;;;;;;5094437;28;20108;-75
2022/08/17 03:13:05;;;;;;;66.60;52.08;;;23.40;99.90;;;;;;5094857;28;20032;-76
2022/08/17 03:15:33;;;;;;;64.13;53.45;;;23.50;99.90;;;;;;5094653;28;20471;-76
2022/08/17 03:18:00;;;;;;;59.63;52.75;;;23.40;99.90;;;;;;5094854;28;20103;-74
2022/08/17 03:20:30;;;;;;;58.35;49.08;;;23.40;99.90;;;;;;5094672;28;20031;-75
2022/08/17 03:22:57;;;;;;;58.65;50.28;;;23.40;99.90;;;;;;5093238;28;20028;-72
2022/08/17 03:25:32;;;;;;;59.78;49.38;;;23.20;99.90;;;;;;5094369;28;20081;-75
2022/08/17 03:27:58;;;;;;;60.20;51.22;;;23.20;99.90;;;;;;5080455;28;20064;-74
2022/08/17 03:30:27;;;;;;;56.40;50.15;;;23.20;99.90;;;;;;5094410;28;20051;-74
2022/08/17 03:32:57;;;;;;;57.97;49.42;;;23.30;99.90;;;;;;5094499;28;20043;-73
2022/08/17 03:35:26;;;;;;;56.80;50.53;;;23.40;99.90;;;;;;5094359;28;20470;-75
2022/08/17 03:37:54;;;;;;;60.85;49.17;;;23.50;99.90;;;;;;5094095;28;20524;-75
2022/08/17 03:40:20;;;;;;;58.58;48.15;;;23.40;99.90;;;;;;5094198;28;20028;-75
2022/08/17 03:42:47;;;;;;;56.33;47.58;;;23.30;99.90;;;;;;5094333;28;20052;-73
2022/08/17 03:56:40;;;;;;;59.67;48.47;;;23.30;99.90;;;;;;5094261;28;20032;-72
2022/08/17 03:56:50;;;;;;;60.28;50.80;;;23.40;99.90;;;;;;5094122;28;20035;-75
2022/08/17 03:59:21;;;;;;;61.45;48.83;;;23.30;99.90;;;;;;5093873;28;20028;-73
2022/08/17 04:01:50;;;;;;;61.70;49.55;;;23.30;99.90;;;;;;5093884;28;20036;-71
2022/08/17 04:04:17;;;;;;;59.80;48.80;;;23.40;99.90;;;;;;5094001;28;20113;-76
2022/08/17 04:06:43;;;;;;;61.30;49.40;;;23.20;99.90;;;;;;5093858;28;20020;-75
2022/08/17 04:09:09;;;;;;;57.60;48.90;;;23.30;99.90;;;;;;5093273;28;20460;-76
2022/08/17 04:11:36;;;;;;;56.22;50.33;;;23.30;99.90;;;;;;5093819;28;20050;-76
2022/08/17 04:14:03;;;;;;;59.72;48.83;;;23.40;99.90;;;;;;5093669;28;20031;-77
2022/08/17 04:16:30;;;;;;;58.90;48.88;;;23.50;99.90;;;;;;5093583;28;20023;-76
2022/08/17 04:18:56;;;;;;;58.58;52.17;;;23.20;99.90;;;;;;5093346;28;20061;-76
2022/08/17 04:21:21;;;;;;;58.90;49.95;;;23.30;99.90;;;;;;5093670;28;20024;-75
2022/08/17 04:23:48;;;;;;;55.33;49.33;;;23.30;99.90;;;;;;5093314;28;20029;-76
2022/08/17 04:26:14;;;;;;;57.60;48.25;;;23.30;99.90;;;;;;5093240;28;20028;-77
2022/08/17 04:28:41;;;;;;;56.20;50.03;;;23.20;99.90;;;;;;5093261;28;20036;-76
2022/08/17 04:31:11;;;;;;;54.30;47.85;;;23.00;99.90;;;;;;5093300;28;20114;-75
2022/08/17 04:33:38;;;;;;;55.65;49.70;;;23.20;99.90;;;;;;5093370;28;20387;-76
2022/08/17 04:36:07;;;;;;;57.38;49.35;;;23.20;99.90;;;;;;5093201;28;20043;-76
2022/08/17 04:38:38;;;;;;;50.55;45.00;;;23.00;99.90;;;;;;5093215;28;20035;-76
2022/08/17 04:43:54;;;;;;;55.92;46.20;;;22.90;99.90;;;;;;5092743;28;20024;-75
2022/08/17 04:46:27;;;;;;;61.13;48.13;;;23.00;99.90;;;;;;5092745;28;20024;-75
2022/08/17 04:48:55;;;;;;;58.42;49.03;;;22.80;99.90;;;;;;5079164;28;20036;-76
2022/08/17 04:51:50;;;;;;;60.47;49.22;;;22.50;99.90;;;;;;5093182;28;20032;-75
2022/08/17 04:54:18;;;;;;;59.20;48.17;;;22.80;99.90;;;;;;5067318;28;20514;-75
2022/08/17 04:56:45;;;;;;;55.22;47.28;;;23.00;99.90;;;;;;5092919;28;20043;-76
2022/08/17 04:59:17;;;;;;;58.22;47.13;;;23.10;99.90;;;;;;5093162;28;20027;-76
2022/08/17 05:01:45;;;;;;;60.28;48.03;;;23.10;99.90;;;;;;5092924;28;20038;-76
2022/08/17 05:04:20;;;;;;;57.13;48.33;;;23.20;99.90;;;;;;5093018;28;20016;-74
2022/08/17 05:06:48;;;;;;;55.83;48.22;;;23.10;99.90;;;;;;5092810;28;20527;-76
2022/08/17 05:09:16;;;;;;;62.40;51.58;;;22.80;99.90;;;;;;5092904;28;20487;-76
2022/08/17 05:11:43;;;;;;;56.42;50.25;;;22.70;99.90;;;;;;5092874;28;20119;-73
2022/08/17 05:14:09;;;;;;;59.00;51.13;;;22.70;99.90;;;;;;5092872;28;20023;-75
2022/08/17 05:16:35;;;;;;;68.75;52.78;;;22.60;99.90;;;;;;5092679;28;20025;-75
2022/08/17 05:19:01;;;;;;;69.40;53.13;;;22.70;99.90;;;;;;5092924;28;20109;-76
2022/08/17 05:21:27;;;;;;;65.13;52.92;;;22.50;99.90;;;;;;5092445;28;20020;-76
2022/08/17 05:23:54;;;;;;;60.50;51.65;;;22.40;99.90;;;;;;5092825;28;20035;-74
2022/08/17 05:26:20;;;;;;;69.78;51.03;;;22.40;99.90;;;;;;5092721;28;20115;-75
2022/08/17 05:28:47;;;;;;;57.38;49.10;;;22.40;99.90;;;;;;5091738;28;20505;-75
2022/08/17 05:31:13;;;;;;;55.83;46.38;;;22.50;99.90;;;;;;5092951;28;20031;-76
2022/08/17 05:33:41;;;;;;;52.20;44.88;;;22.50;99.90;;;;;;5096869;28;20032;-75
2022/08/17 05:36:10;;;;;;;55.70;44.13;;;22.40;99.90;;;;;;5096205;28;20054;-75
2022/08/17 05:38:36;;;;;;;54.67;43.90;;;22.40;99.90;;;;;;5096543;28;20032;-75
2022/08/17 05:41:04;;;;;;;44.75;36.28;;;22.50;99.90;;;;;;5096484;28;20107;-76
2022/08/17 05:43:32;;;;;;;40.78;33.45;;;22.40;99.90;;;;;;5096767;28;20020;-75
2022/08/17 05:46:17;;;;;;;41.45;35.00;;;22.20;99.90;;;;;;5095107;28;20032;-74
2022/08/17 05:48:52;;;;;;;37.45;28.02;;;22.30;99.90;;;;;;5097142;28;20139;-74
2022/08/17 05:51:51;;;;;;;42.83;30.77;;;22.20;99.90;;;;;;5098001;28;20035;-71
2022/08/17 05:54:42;;;;;;;36.13;28.48;;;22.40;99.90;;;;;;5084321;28;20393;-71
2022/08/17 05:57:29;;;;;;;38.03;29.05;;;22.40;99.90;;;;;;5096298;28;20036;-72
2022/08/17 06:00:19;;;;;;;41.92;29.05;;;22.50;99.90;;;;;;5096427;28;20028;-72
2022/08/17 06:02:55;;;;;;;38.78;27.92;;;22.60;99.90;;;;;;5084841;28;20035;-76
2022/08/17 06:05:23;;;;;;;37.30;26.20;;;22.60;99.90;;;;;;5095031;28;20074;-76
2022/08/17 06:08:07;;;;;;;32.97;26.60;;;22.60;99.90;;;;;;5096161;28;20035;-75
2022/08/17 06:10:39;;;;;;;36.20;25.30;;;22.60;99.90;;;;;;5094507;28;20118;-75
2022/08/17 06:13:08;;;;;;;40.50;27.02;;;22.60;99.90;;;;;;5096075;28;20040;-74
2022/08/17 06:16:00;;;;;;;37.65;24.85;;;22.70;99.90;;;;;;5094679;28;20020;-75
2022/08/17 06:18:44;;;;;;;34.78;26.45;;;22.70;99.90;;;;;;5095956;28;20086;-76
2022/08/17 06:21:14;;;;;;;43.55;26.58;;;22.80;99.90;;;;;;5095617;28;20101;-74
2022/08/17 06:23:58;;;;;;;38.97;26.15;;;22.70;99.90;;;;;;5096315;28;20026;-75
2022/08/17 06:26:30;;;;;;;33.92;26.10;;;22.80;99.90;;;;;;5077117;28;20049;-75
2022/08/17 06:29:01;;;;;;;38.05;24.90;;;22.90;99.90;;;;;;5091194;28;20064;-76
2022/08/17 06:31:35;;;;;;;34.75;27.00;;;22.70;99.90;;;;;;5084121;28;20024;-79
2022/08/17 06:34:08;;;;;;;39.90;25.70;;;22.90;99.90;;;;;;5107765;28;20503;-79
2022/08/17 06:36:41;;;;;;;38.40;25.45;;;22.60;99.90;;;;;;5099907;28;20123;-79
2022/08/17 06:39:20;;;;;;;45.03;30.48;;;22.90;99.90;;;;;;5097614;28;20051;-82
2022/08/17 06:42:01;;;;;;;42.92;34.10;;;23.10;99.90;;;;;;5088037;28;20080;-80
2022/08/17 06:44:43;;;;;;;53.63;36.50;;;22.80;99.90;;;;;;5105989;28;20383;-81
2022/08/17 06:47:18;;;;;;;59.55;38.08;;;22.70;99.90;;;;;;5101568;28;20093;-79
2022/08/17 06:50:06;;;;;;;54.17;40.42;;;22.70;99.90;;;;;;5090687;28;20090;-82
2022/08/17 06:52:37;;;;;;;48.63;40.13;;;23.10;99.90;;;;;;5095018;28;20032;-82
2022/08/17 06:55:08;;;;;;;61.72;51.35;;;22.90;99.90;;;;;;5094858;28;20024;-82
2022/08/17 06:57:42;;;;;;;76.17;58.50;;;23.00;99.90;;;;;;5102660;28;20039;-80
2022/08/17 07:00:16;;;;;;;75.28;60.65;;;22.70;99.90;;;;;;5106304;28;20020;-79
2022/08/17 07:02:51;;;;;;;90.97;68.50;;;22.40;99.90;;;;;;5099679;28;20483;-80
2022/08/17 07:05:19;;;;;;;96.90;76.97;;;22.50;99.90;;;;;;5097286;28;20096;-78
2022/08/17 07:08:19;;;;;;;90.00;74.63;;;22.80;99.90;;;;;;5101491;28;20048;-81
2022/08/17 07:10:52;;;;;;;91.18;77.85;;;22.50;99.90;;;;;;5107305;28;20028;-80
2022/08/17 07:13:43;;;;;;;104.40;83.68;;;22.30;99.90;;;;;;5102725;28;20036;-78
2022/08/17 07:16:19;;;;;;;103.03;85.55;;;22.10;99.90;;;;;;5086866;28;20128;-80
2022/08/17 07:18:46;;;;;;;107.15;86.07;;;22.10;99.90;;;;;;5108191;28;20099;-79
2022/08/17 07:21:20;;;;;;;109.88;88.55;;;22.50;99.90;;;;;;5096007;28;20020;-78
2022/08/17 07:23:59;;;;;;;105.03;85.30;;;22.70;99.90;;;;;;5107236;28;20027;-79
2022/08/17 07:26:26;;;;;;;104.00;88.18;;;22.90;99.90;;;;;;5086297;28;20488;-80
2022/08/17 07:28:55;;;;;;;99.18;82.40;;;23.10;99.90;;;;;;5083408;28;20047;-80
2022/08/17 07:31:22;;;;;;;108.45;84.72;;;22.90;99.90;;;;;;5097788;28;20400;-81
2022/08/17 07:34:02;;;;;;;98.18;83.53;;;22.80;99.90;;;;;;5089353;28;20043;-79
2022/08/17 07:36:32;;;;;;;104.28;85.63;;;23.00;99.90;;;;;;5087947;28;20824;-80
2022/08/17 07:39:00;;;;;;;94.55;82.38;;;22.90;99.90;;;;;;5088555;28;20149;-80
2022/08/17 07:41:38;;;;;;;92.82;82.18;;;22.90;99.90;;;;;;5091411;28;20031;-82
2022/08/17 07:44:11;;;;;;;100.05;85.70;;;22.80;99.90;;;;;;5093232;28;20488;-79
2022/08/17 07:49:38;;;;;;;99.07;80.80;;;22.70;99.90;;;;;;5086138;28;20085;-78
2022/08/17 07:52:29;;;;;;;91.68;80.72;;;23.00;99.90;;;;;;5090072;28;20098;-80
2022/08/17 07:54:56;;;;;;;99.75;82.75;;;22.90;99.90;;;;;;5081527;28;20055;-80
2022/08/17 07:57:35;;;;;;;98.93;84.60;;;22.80;99.90;;;;;;5092499;28;20083;-79
2022/08/17 08:00:00;;;;;;;106.38;86.72;;;22.40;99.90;;;;;;5096244;28;20024;-78
2022/08/17 08:02:30;;;;;;;105.57;89.15;;;22.10;99.90;;;;;;5091188;28;20023;-78
2022/08/17 08:05:08;;;;;;;109.63;89.03;;;22.20;99.90;;;;;;5091155;28;20032;-78
2022/08/17 08:07:49;;;;;;;100.22;85.90;;;22.80;99.90;;;;;;5089436;28;20044;-78
2022/08/17 08:10:40;;;;;;;95.00;83.60;;;23.10;99.90;;;;;;5097493;28;20016;-78
2022/08/17 08:13:28;;;;;;;95.90;79.50;;;22.60;99.90;;;;;;5088548;28;20046;-78
2022/08/17 08:16:10;;;;;;;108.60;88.57;;;22.30;99.90;;;;;;5088526;28;20024;-79
2022/08/17 08:18:42;;;;;;;100.90;84.88;;;22.70;99.90;;;;;;5095804;28;20036;-78
2022/08/17 08:21:31;;;;;;;88.68;78.38;;;22.90;99.90;;;;;;5090721;28;20874;-78
2022/08/17 08:24:15;;;;;;;88.43;78.32;;;22.60;99.90;;;;;;5099087;28;20458;-77
2022/08/17 08:27:08;;;;;;;84.07;74.97;;;22.70;99.90;;;;;;5095073;28;20066;-78
2022/08/17 08:29:57;;;;;;;92.40;75.65;;;22.60;99.90;;;;;;5083357;28;20082;-78
2022/08/17 08:32:46;;;;;;;95.85;78.82;;;22.70;99.90;;;;;;5099052;28;20036;-79
2022/08/17 08:35:30;;;;;;;93.20;81.55;;;23.20;99.90;;;;;;5091752;28;20479;-79
2022/08/17 08:38:01;;;;;;;97.43;79.80;;;23.50;99.90;;;;;;5092547;28;20389;-78
2022/08/17 08:40:43;;;;;;;94.78;76.63;;;23.50;99.90;;;;;;5090027;28;20114;-78
2022/08/17 08:43:36;;;;;;;84.47;65.05;;;23.70;99.90;;;;;;5091663;28;20032;-80
2022/08/17 08:46:13;;;;;;;69.10;59.85;;;23.60;99.90;;;;;;5100374;28;20034;-81
2022/08/17 08:49:22;;;;;;;66.70;57.65;;;23.40;99.90;;;;;;5100614;28;20020;-80
2022/08/17 08:51:58;;;;;;;62.92;55.92;;;23.40;99.90;;;;;;5092703;28;20035;-82
2022/08/17 08:54:52;;;;;;;64.55;54.65;;;23.20;99.90;;;;;;5093677;28;20043;-82
2022/08/17 08:57:29;;;;;;;62.55;55.88;;;23.50;99.90;;;;;;5098968;28;20066;-80
2022/08/17 09:00:14;;;;;;;76.05;62.95;;;24.00;99.90;;;;;;5105902;28;20024;-79
2022/08/17 09:02:48;;;;;;;89.72;71.47;;;24.10;99.90;;;;;;5091434;28;20055;-82
2022/08/17 09:05:48;;;;;;;93.05;74.78;;;24.40;99.90;;;;;;5095653;28;20028;-82
2022/08/17 09:08:35;;;;;;;92.93;76.47;;;24.70;99.90;;;;;;5100962;28;20039;-78
2022/08/17 09:11:11;;;;;;;76.53;63.45;;;24.60;99.90;;;;;;5090435;28;20024;-78
2022/08/17 09:13:55;;;;;;;72.75;59.72;;;24.50;99.90;;;;;;5086682;28;20522;-80
2022/08/17 09:16:28;;;;;;;70.82;61.35;;;24.60;99.90;;;;;;5082381;28;20042;-78
2022/08/17 09:19:03;;;;;;;65.85;57.88;;;24.50;99.90;;;;;;5092345;28;20024;-80
2022/08/17 09:21:53;;;;;;;68.70;58.25;;;24.40;99.90;;;;;;5081920;28;20023;-78
2022/08/17 09:24:40;;;;;;;71.50;61.35;;;24.20;99.90;;;;;;5086593;28;20115;-78
2022/08/17 09:27:13;;;;;;;70.55;57.67;;;24.30;99.90;;;;;;5094577;28;20099;-83
2022/08/17 09:29:47;;;;;;;66.38;56.38;;;23.70;99.90;;;;;;5088856;28;20500;-83
2022/08/17 09:32:37;;;;;;;65.30;56.95;;;23.60;99.90;;;;;;5092869;28;20055;-82
2022/08/17 09:35:28;;;;;;;61.65;54.80;;;23.30;99.90;;;;;;5085729;28;20026;-79
2022/08/17 09:38:00;;;;;;;60.95;54.47;;;23.20;99.90;;;;;;5084427;28;20044;-79
2022/08/17 09:40:38;;;;;;;58.25;50.97;;;23.30;99.90;;;;;;5077994;28;20032;-80
2022/08/17 09:43:29;;;;;;;56.05;49.95;;;23.30;99.90;;;;;;5086274;28;20048;-79
2022/08/17 09:46:02;;;;;;;63.35;52.13;;;23.20;99.90;;;;;;5103754;28;20028;-79
2022/08/17 09:48:49;;;;;;;52.78;46.85;;;23.00;99.90;;;;;;5081342;28;20027;-79
2022/08/17 09:51:14;;;;;;;51.42;44.85;;;23.00;99.90;;;;;;5096861;28;20028;-79
2022/08/17 09:53:40;;;;;;;50.75;43.72;;;22.90;99.90;;;;;;5084701;28;20056;-83
2022/08/17 09:56:06;;;;;;;49.45;44.17;;;22.90;99.90;;;;;;5092181;28;20099;-79
2022/08/17 09:58:49;;;;;;;48.65;43.45;;;23.00;99.90;;;;;;5096743;28;20479;-79
2022/08/17 10:01:53;;;;;;;50.90;42.38;;;23.10;99.90;;;;;;5098115;28;20400;-79
2022/08/17 10:04:46;;;;;;;51.15;42.33;;;23.00;99.90;;;;;;5089949;28;20114;-78
2022/08/17 10:07:54;;;;;;;55.58;42.83;;;22.90;99.90;;;;;;5089285;28;20027;-77
2022/08/17 10:10:29;;;;;;;44.90;40.00;;;23.00;99.90;;;;;;5096775;28;20031;-78
2022/08/17 10:13:07;;;;;;;45.47;39.00;;;22.80;99.90;;;;;;5082402;28;20037;-78
2022/08/17 10:15:42;;;;;;;45.42;38.80;;;23.00;99.90;;;;;;5086290;28;20040;-78
2022/08/17 10:18:36;;;;;;;43.70;37.38;;;22.80;99.90;;;;;;5102328;28;20074;-78
2022/08/17 10:27:11;;;;;;;39.60;35.33;;;23.00;99.90;;;;;;5084619;28;20107;-74
2022/08/17 10:29:46;;;;;;;39.50;35.15;;;22.70;99.90;;;;;;5087985;28;20047;-74
2022/08/17 10:32:31;;;;;;;40.38;33.65;;;22.90;99.90;;;;;;5085724;28;20723;-74
2022/08/17 10:35:19;;;;;;;37.30;32.90;;;22.90;99.90;;;;;;5087521;28;20108;-73
2022/08/17 10:38:20;;;;;;;45.65;33.88;;;22.90;99.90;;;;;;5084507;28;20034;-76
2022/08/17 10:41:12;;;;;;;39.50;33.33;;;22.70;99.90;;;;;;5081436;28;20024;-73
2022/08/17 10:44:03;;;;;;;40.75;33.63;;;22.70;99.90;;;;;;5087970;28;20025;-75
2022/08/17 10:46:51;;;;;;;45.58;34.05;;;22.60;99.90;;;;;;5083642;28;20029;-74
2022/08/17 10:49:16;;;;;;;39.13;35.03;;;22.50;99.90;;;;;;5095430;28;20093;-74
2022/08/17 10:51:47;;;;;;;41.00;36.75;;;22.60;99.90;;;;;;5095177;28;20028;-76
2022/08/17 10:54:39;;;;;;;36.77;32.93;;;22.70;99.90;;;;;;5095174;28;20036;-73
2022/08/17 10:57:23;;;;;;;;;;;22.40;99.90;;;;;;5095051;28;20052;-76
2022/08/17 10:59:51;;;;;;;41.38;33.03;;;22.40;99.90;;;;;;5095258;28;20457;-76
2022/08/17 11:02:21;;;;;;;37.22;33.22;;;22.30;99.90;;;;;;5094826;28;20032;-73
2022/08/17 11:04:59;;;;;;;37.67;33.58;;;22.30;99.90;;;;;;5093725;28;20078;-75
2022/08/17 11:07:42;;;;;;;36.85;30.77;;;22.40;99.90;;;;;;5093640;28;20471;-75
2022/08/17 11:10:20;;;;;;;34.70;30.95;;;22.20;99.90;;;;;;5094562;28;20479;-76
2022/08/17 11:13:04;;;;;;;29.17;26.23;;;22.20;99.90;;;;;;5081615;28;20044;-75
2022/08/17 11:16:07;;;;;;;26.33;23.65;;;22.00;99.90;;;;;;5094598;28;20024;-76
2022/08/17 11:18:49;;;;;;;28.05;20.58;;;22.10;99.90;;;;;;5035516;28;20029;-75
2022/08/17 11:21:40;;;;;;;22.35;19.90;;;21.90;99.90;;;;;;5079558;28;20038;-75
2022/08/17 11:24:33;;;;;;;20.73;18.70;;;21.90;99.90;;;;;;5094096;28;20020;-75
2022/08/17 11:27:06;;;;;;;23.90;21.40;;;21.90;99.90;;;;;;5094446;28;20061;-75
2022/08/17 11:29:46;;;;;;;23.95;21.42;;;22.00;99.90;;;;;;5092555;28;20073;-75
2022/08/17 11:32:28;;;;;;;25.88;23.30;;;21.90;99.90;;;;;;5096811;28;20032;-70
2022/08/17 11:35:18;;;;;;;28.20;25.17;;;21.90;99.90;;;;;;5107041;28;20024;-70
2022/08/17 11:37:49;;;;;;;29.63;26.10;;;21.90;99.90;;;;;;5096392;28;20040;-75
2022/08/17 11:41:06;;;;;;;29.20;26.27;;;22.20;99.90;;;;;;5097001;28;20344;-76
2022/08/17 11:43:57;;;;;;;30.63;26.35;;;22.20;99.90;;;;;;5070944;28;20499;-76
2022/08/17 11:52:41;;;;;;;29.38;26.27;;;22.20;99.90;;;;;;5081177;28;20392;-76
2022/08/17 11:55:27;;;;;;;31.20;27.33;;;22.30;99.90;;;;;;5093665;28;20028;-76
2022/08/17 11:58:00;;;;;;;31.33;27.42;;;22.30;99.90;;;;;;5094049;28;20393;-76
2022/08/17 12:00:51;;;;;;;30.67;26.38;;;22.50;99.90;;;;;;5093894;28;20051;-75
2022/08/17 12:03:25;;;;;;;31.50;28.17;;;22.60;99.90;;;;;;5093777;28;20024;-75
2022/08/17 12:06:16;;;;;;;28.88;25.83;;;22.60;99.90;;;;;;5093863;28;20032;-76
2022/08/17 12:08:52;;;;;;;28.17;25.15;;;22.60;99.90;;;;;;5093631;28;20032;-72
2022/08/17 12:11:32;;;;;;;26.75;23.45;;;22.50;99.90;;;;;;5093790;28;20028;-74
2022/08/17 12:13:58;;;;;;;28.23;24.65;;;22.70;99.90;;;;;;5093514;28;20043;-74
2022/08/17 12:16:25;;;;;;;27.00;24.25;;;22.60;99.90;;;;;;5093469;28;20035;-75
2022/08/17 12:18:58;;;;;;;27.40;24.50;;;22.40;99.90;;;;;;5093428;28;20040;-72
2022/08/17 12:21:39;;;;;;;28.95;25.85;;;22.40;99.90;;;;;;5093733;28;20035;-73
2022/08/17 12:24:34;;;;;;;30.10;26.88;;;22.50;99.90;;;;;;5093191;28;20023;-74
2022/08/17 12:27:03;;;;;;;26.73;24.15;;;22.50;99.90;;;;;;5093482;28;20077;-75
2022/08/17 12:29:31;;;;;;;30.63;26.40;;;22.50;99.90;;;;;;5093235;28;20501;-74
2022/08/17 12:31:57;;;;;;;31.30;26.58;;;22.30;99.90;;;;;;5093611;28;20040;-73
2022/08/17 12:34:35;;;;;;;28.98;25.98;;;22.50;99.90;;;;;;5093214;28;20032;-74
2022/08/17 12:37:06;;;;;;;31.40;26.30;;;22.80;99.90;;;;;;5093218;28;20027;-75
2022/08/17 12:39:32;;;;;;;28.98;25.77;;;22.90;99.90;;;;;;5093257;28;20077;-76
2022/08/17 12:41:59;;;;;;;29.80;26.60;;;22.70;99.90;;;;;;5093419;28;20475;-76
2022/08/17 12:44:32;;;;;;;30.38;27.20;;;23.00;99.90;;;;;;5093040;28;20031;-76
2022/08/17 12:47:03;;;;;;;31.95;27.25;;;22.80;99.90;;;;;;5093156;28;20027;-75
2022/08/17 12:49:38;;;;;;;29.30;26.20;;;22.40;99.90;;;;;;5093684;28;20389;-73
2022/08/17 12:52:26;;;;;;;31.63;28.48;;;22.10;99.90;;;;;;5092701;28;20036;-76
2022/08/17 12:55:05;;;;;;;32.83;29.27;;;22.10;99.90;;;;;;5093672;28;20036;-70
2022/08/17 12:57:37;;;;;;;33.67;30.02;;;21.90;99.90;;;;;;5080481;28;20097;-75
2022/08/17 13:00:34;;;;;;;35.15;31.35;;;22.10;99.90;;;;;;5092794;28;20115;-72
2022/08/17 13:03:08;;;;;;;35.03;31.45;;;22.60;99.90;;;;;;5090898;28;20051;-72
2022/08/17 13:05:38;;;;;;;34.85;30.95;;;22.90;99.90;;;;;;5092585;28;20043;-73
2022/08/17 13:08:17;;;;;;;32.83;29.58;;;22.20;99.90;;;;;;5093139;28;20024;-75
2022/08/17 13:10:52;;;;;;;33.92;30.40;;;22.40;99.90;;;;;;5092787;28;20028;-72
2022/08/17 13:13:23;;;;;;;36.00;30.42;;;22.50;99.90;;;;;;5092941;28;20123;-75
2022/08/17 13:15:58;;;;;;;34.08;30.75;;;22.70;99.90;;;;;;5092663;28;20021;-73
2022/08/17 13:18:38;;;;;;;35.38;31.75;;;22.90;99.90;;;;;;5092945;28;20082;-74
2022/08/17 13:21:11;;;;;;;36.08;32.15;;;22.90;99.90;;;;;;5092496;28;20496;-71
2022/08/17 13:23:37;;;;;;;35.20;31.77;;;23.10;99.90;;;;;;5092931;28;20115;-70
2022/08/17 13:26:13;;;;;;;35.25;31.52;;;23.10;99.90;;;;;;5092529;28;20464;-74
2022/08/17 13:28:47;;;;;;;35.03;31.58;;;22.90;99.90;;;;;;5092887;28;20042;-74